Time;durP1;ratioP1;P1;durP2;ratioP2;P2;SDS_P1;SDS_P2;PMS_P1;PMS_P2;Temp;Humidity;BMP_temperature;BMP_pressure;BME280_temperature;BME280_humidity;BME280_pressure;Samples;Min_cycle;Max_cycle;Signal;HPM_P1;HPM_P2
2023/02/03 00:01:27;;;;;;;0.87;0.70;;;;;;;7.52;79.17;99977.75;5011679;28;103929;-70
2023/02/03 00:03:55;;;;;;;3.80;0.90;;;;;;;7.54;79.27;99984.66;5010445;28;103574;-70
2023/02/03 00:06:23;;;;;;;2.03;0.90;;;;;;;7.56;79.19;99969.66;5005834;27;104227;-70
2023/02/03 00:08:55;;;;;;;2.77;1.00;;;;;;;7.68;78.50;99970.09;5016707;27;102692;-70
2023/02/03 00:11:23;;;;;;;2.00;0.80;;;;;;;7.40;79.64;99960.69;5014254;28;103240;-70
2023/02/03 00:13:51;;;;;;;1.70;1.00;;;;;;;7.41;79.53;99970.25;5013834;27;104013;-70
2023/02/03 00:16:18;;;;;;;2.20;0.83;;;;;;;7.56;79.17;99971.41;5013930;28;103364;-71
2023/02/03 00:18:48;;;;;;;1.43;0.87;;;;;;;7.57;78.60;99966.13;5020632;27;103153;-70
2023/02/03 00:21:16;;;;;;;2.97;0.93;;;;;;;7.63;78.79;99970.28;5004336;28;104341;-70
2023/02/03 00:23:44;;;;;;;1.70;0.80;;;;;;;7.54;78.95;99971.50;5014108;28;104158;-70
2023/02/03 00:26:14;;;;;;;1.47;0.60;;;;;;;7.35;79.66;99960.00;5009165;28;103312;-70
2023/02/03 00:28:43;;;;;;;1.83;0.80;;;;;;;7.69;78.59;99970.00;5034878;27;102726;-70
2023/02/03 00:31:15;;;;;;;0.80;0.70;;;;;;;7.69;78.08;99969.16;5009512;28;102980;-70
2023/02/03 00:33:47;;;;;;;1.10;0.67;;;;;;;7.53;78.50;99964.50;5013455;27;103265;-70
2023/02/03 00:36:17;;;;;;;1.03;0.70;;;;;;;7.43;79.40;99963.19;5009236;28;104472;-70
2023/02/03 00:38:45;;;;;;;0.90;0.70;;;;;;;7.66;78.56;99961.41;5014343;27;102726;-70
2023/02/03 00:41:13;;;;;;;1.17;0.70;;;;;;;7.59;78.85;99969.53;5009463;28;102764;-70
2023/02/03 00:43:41;;;;;;;1.13;0.77;;;;;;;7.68;78.26;99983.22;5007065;27;104927;-70
2023/02/03 00:46:08;;;;;;;1.03;0.50;;;;;;;7.69;78.56;99984.97;5013460;28;104424;-70
2023/02/03 00:48:36;;;;;;;1.90;1.10;;;;;;;7.65;78.55;99991.25;5017511;27;102683;-70
2023/02/03 00:51:06;;;;;;;2.00;0.73;;;;;;;7.58;78.21;99980.09;5009740;27;104026;-70
2023/02/03 00:53:34;;;;;;;0.70;0.70;;;;;;;7.63;78.88;99990.47;5014826;28;103946;-70
2023/02/03 00:56:02;;;;;;;2.03;0.90;;;;;;;7.70;78.74;99989.28;5006602;28;103226;-70
2023/02/03 00:58:30;;;;;;;0.93;0.70;;;;;;;7.71;78.47;99988.38;5012951;28;102987;-70
2023/02/03 01:00:57;;;;;;;0.90;0.70;;;;;;;7.50;78.88;99983.03;5011187;28;103574;-70
2023/02/03 01:03:25;;;;;;;1.00;0.67;;;;;;;7.65;79.08;99983.34;5005986;28;103460;-70
2023/02/03 01:05:53;;;;;;;2.10;0.80;;;;;;;7.75;78.54;99980.28;5013551;28;104217;-70
2023/02/03 01:08:23;;;;;;;1.00;0.90;;;;;;;7.63;78.98;99977.31;5014420;28;102595;-70
2023/02/03 01:10:53;;;;;;;1.40;0.70;;;;;;;7.59;79.02;99977.44;5010194;28;103851;-70
2023/02/03 01:13:21;;;;;;;0.80;0.70;;;;;;;7.79;78.74;99975.75;5015803;28;103347;-70
2023/02/03 01:15:48;;;;;;;1.80;0.80;;;;;;;7.51;79.55;99963.72;5006163;28;103365;-70
2023/02/03 01:18:16;;;;;;;1.30;0.80;;;;;;;7.76;78.86;99939.91;5012757;28;102896;-70
2023/02/03 01:20:44;;;;;;;0.80;0.80;;;;;;;7.74;78.71;99930.38;5030227;27;104074;-70
2023/02/03 01:23:12;;;;;;;1.67;0.80;;;;;;;7.77;78.80;99938.13;5015365;28;104033;-71
2023/02/03 01:25:41;;;;;;;1.10;1.00;;;;;;;7.70;79.19;99936.66;5011884;28;103900;-70
2023/02/03 01:28:09;;;;;;;2.37;1.10;;;;;;;7.72;79.20;99942.75;5015249;28;102837;-70
2023/02/03 01:30:40;;;;;;;2.30;0.90;;;;;;;7.51;79.81;99950.59;5016550;28;103643;-70
2023/02/03 01:33:08;;;;;;;1.23;0.97;;;;;;;7.39;80.70;99940.53;5009440;28;103935;-70
2023/02/03 01:35:36;;;;;;;0.70;0.70;;;;;;;7.62;79.91;99941.38;5013415;28;102996;-70
2023/02/03 01:38:03;;;;;;;0.90;0.90;;;;;;;7.72;79.01;99926.97;5010041;28;104207;-70
2023/02/03 01:40:31;;;;;;;1.00;0.90;;;;;;;7.77;79.28;99931.09;5021666;28;102756;-70
2023/02/03 01:43:01;;;;;;;1.13;0.90;;;;;;;7.54;80.02;99934.69;5008154;28;104386;-70
2023/02/03 01:45:31;;;;;;;1.30;1.10;;;;;;;7.68;79.34;99934.13;5017085;28;103200;-69
2023/02/03 01:47:59;;;;;;;1.20;1.00;;;;;;;7.63;79.91;99932.59;5009880;28;103042;-70
2023/02/03 01:50:31;;;;;;;0.90;0.90;;;;;;;7.65;79.67;99947.38;5015847;28;103735;-70
2023/02/03 01:53:02;;;;;;;2.70;1.00;;;;;;;7.68;79.65;99942.00;5013310;28;104084;-69
2023/02/03 01:55:34;;;;;;;1.47;0.90;;;;;;;7.67;79.63;99955.19;5033413;27;103294;-70
2023/02/03 01:58:08;;;;;;;1.10;0.80;;;;;;;7.67;79.51;99949.94;5012280;28;102958;-70
2023/02/03 02:00:36;;;;;;;1.40;1.03;;;;;;;7.79;79.02;99947.69;5011820;28;102758;-70
2023/02/03 02:03:06;;;;;;;1.10;0.90;;;;;;;7.69;79.25;99938.44;5016509;28;103622;-70
2023/02/03 02:05:39;;;;;;;2.43;0.90;;;;;;;7.61;79.87;99926.53;5005843;28;103001;-70
2023/02/03 02:08:13;;;;;;;1.50;1.20;;;;;;;7.75;79.85;99926.84;5008968;28;102700;-70
2023/02/03 02:10:44;;;;;;;2.53;1.37;;;;;;;7.71;80.18;99919.97;5012085;28;103679;-70
2023/02/03 02:13:14;;;;;;;2.27;1.40;;;;;;;7.77;80.11;99910.06;5011356;28;104477;-70
2023/02/03 02:15:54;;;;;;;1.87;1.40;;;;;;;7.82;79.90;99875.66;5009846;28;103239;-69
2023/02/03 02:18:43;;;;;;;2.40;1.30;;;;;;;7.82;80.00;99860.72;5013341;28;102626;-70
2023/02/03 02:21:43;;;;;;;1.23;1.10;;;;;;;7.80;79.94;99853.81;5014055;28;103980;-69
2023/02/03 02:24:43;;;;;;;2.40;1.40;;;;;;;7.67;79.81;99871.03;5010008;28;103250;-70
2023/02/03 02:27:26;;;;;;;1.67;1.10;;;;;;;7.57;80.56;99871.44;5010771;28;103192;-70
2023/02/03 02:30:32;;;;;;;1.80;1.33;;;;;;;7.58;80.60;99875.75;5011658;28;102973;-70
2023/02/03 02:33:14;;;;;;;1.47;1.30;;;;;;;7.57;80.68;99868.81;5026617;27;102657;-70
2023/02/03 02:35:51;;;;;;;2.10;1.10;;;;;;;7.76;79.62;99857.50;5011407;28;104065;-70
2023/02/03 02:38:35;;;;;;;2.00;1.10;;;;;;;7.49;80.22;99851.63;5008388;28;103191;-70
2023/02/03 02:41:08;;;;;;;3.50;1.23;;;;;;;7.72;79.84;99843.59;5014108;28;102738;-69
2023/02/03 02:43:42;;;;;;;2.30;1.30;;;;;;;7.47;80.51;99821.88;5016262;28;103376;-70
2023/02/03 02:46:13;;;;;;;1.73;1.27;;;;;;;7.64;80.15;99836.97;5011703;28;103378;-70
2023/02/03 02:48:49;;;;;;;1.10;1.00;;;;;;;7.52;80.51;99868.13;5008615;28;105147;-70
2023/02/03 02:51:20;;;;;;;1.00;0.90;;;;;;;7.59;80.57;99866.97;5015386;28;102687;-70
2023/02/03 02:53:53;;;;;;;3.27;1.20;;;;;;;7.75;79.88;99874.22;5011181;28;102896;-70
2023/02/03 02:56:21;;;;;;;1.43;1.27;;;;;;;7.79;80.00;99860.84;5011011;27;104065;-70
2023/02/03 02:58:51;;;;;;;2.37;1.17;;;;;;;7.75;79.45;99864.53;5018545;27;103293;-70
2023/02/03 03:01:19;;;;;;;2.27;1.00;;;;;;;7.80;79.87;99877.50;5008939;28;102702;-70
2023/02/03 03:03:51;;;;;;;1.47;0.97;;;;;;;8.04;78.53;99860.63;5014157;28;103726;-70
2023/02/03 03:06:23;;;;;;;1.63;0.90;;;;;;;8.02;78.98;99850.19;5008468;28;104256;-70
2023/02/03 03:08:55;;;;;;;1.50;1.17;;;;;;;7.75;79.64;99850.53;5021774;27;106026;-70
2023/02/03 03:11:26;;;;;;;3.40;1.50;;;;;;;7.70;79.94;99849.84;5030399;27;102780;-70
2023/02/03 03:13:56;;;;;;;1.27;1.03;;;;;;;7.73;80.05;99860.25;5011037;28;102896;-70
2023/02/03 03:16:27;;;;;;;2.93;1.00;;;;;;;7.73;80.02;99855.84;5011395;28;104097;-70
2023/02/03 03:19:01;;;;;;;1.57;1.20;;;;;;;7.73;79.85;99850.59;5008023;28;104207;-70
2023/02/03 03:21:34;;;;;;;1.57;0.93;;;;;;;7.73;79.60;99844.47;5012094;28;102647;-70
2023/02/03 03:24:08;;;;;;;1.27;0.97;;;;;;;7.83;79.37;99846.63;5013295;28;102638;-71
2023/02/03 03:26:43;;;;;;;0.57;0.57;;;;;;;7.80;79.29;99853.81;5008973;27;103214;-70
2023/02/03 03:29:18;;;;;;;1.73;0.83;;;;;;;7.87;79.07;99855.25;5009996;28;103217;-70
2023/02/03 03:31:46;;;;;;;1.53;0.80;;;;;;;7.93;78.78;99873.41;5009671;28;102628;-70
2023/02/03 03:34:18;;;;;;;2.47;0.87;;;;;;;7.92;78.62;99876.94;5013509;28;102612;-70
2023/02/03 03:36:58;;;;;;;1.90;0.70;;;;;;;7.90;78.96;99874.41;5002645;28;103275;-70
2023/02/03 03:39:33;;;;;;;0.93;0.70;;;;;;;7.79;79.03;99881.03;5012383;28;103232;-70
2023/02/03 03:42:09;;;;;;;0.70;0.47;;;;;;;7.77;79.29;99883.75;5011587;28;102631;-70
2023/02/03 03:44:42;;;;;;;0.70;0.70;;;;;;;7.86;78.53;99885.13;5010651;28;103626;-70
2023/02/03 03:47:16;;;;;;;0.90;0.80;;;;;;;7.91;78.31;99891.06;5008831;28;104389;-70
2023/02/03 03:49:48;;;;;;;1.40;0.67;;;;;;;7.57;79.90;99897.72;5012491;28;103315;-71
2023/02/03 03:52:21;;;;;;;1.17;0.60;;;;;;;8.01;78.61;99903.75;5011098;28;102582;-70
2023/02/03 03:54:51;;;;;;;1.27;0.80;;;;;;;7.97;78.47;99914.47;5011548;28;103729;-70
2023/02/03 03:57:23;;;;;;;0.90;0.70;;;;;;;8.11;77.97;99914.75;5014053;28;103233;-71
2023/02/03 03:59:52;;;;;;;0.80;0.80;;;;;;;8.12;78.10;99926.97;5011781;28;103297;-71
2023/02/03 04:02:21;;;;;;;0.60;0.60;;;;;;;7.95;78.91;99937.34;5008631;28;103053;-71
2023/02/03 04:04:54;;;;;;;0.70;0.67;;;;;;;8.03;78.63;99929.97;5012178;28;104143;-70
2023/02/03 04:07:22;;;;;;;1.23;0.83;;;;;;;8.05;78.29;99925.53;5013700;28;103300;-71
2023/02/03 04:09:50;;;;;;;0.83;0.60;;;;;;;8.12;78.22;99927.81;5006337;27;103199;-70
2023/02/03 04:12:22;;;;;;;2.93;0.63;;;;;;;8.15;77.89;99911.91;5010170;28;102673;-70
2023/02/03 04:14:50;;;;;;;2.10;0.90;;;;;;;8.11;78.33;99927.91;5027790;27;103044;-70
2023/02/03 04:17:20;;;;;;;2.30;0.50;;;;;;;8.06;79.59;99933.34;5012683;28;103663;-71
2023/02/03 04:19:48;;;;;;;0.60;0.50;;;;;;;8.26;79.21;99940.41;5013105;27;103278;-71
2023/02/03 04:22:19;;;;;;;0.60;0.53;;;;;;;8.05;80.24;99936.06;5013025;28;102631;-71
2023/02/03 04:24:47;;;;;;;0.90;0.50;;;;;;;7.96;81.10;99931.19;5012111;28;102963;-71
2023/02/03 04:27:15;;;;;;;0.77;0.60;;;;;;;8.12;81.05;99942.75;5016009;27;103533;-71
2023/02/03 04:29:43;;;;;;;1.30;0.70;;;;;;;8.06;81.95;99927.22;5007712;28;102997;-71
2023/02/03 04:32:11;;;;;;;0.50;0.40;;;;;;;8.08;82.70;99909.63;5013233;28;102619;-71
2023/02/03 04:34:38;;;;;;;0.80;0.50;;;;;;;8.07;82.39;99906.13;5016280;28;103800;-73
2023/02/03 04:37:09;;;;;;;0.57;0.57;;;;;;;8.14;82.43;99904.06;5007326;27;104361;-72
2023/02/03 04:39:38;;;;;;;1.07;0.70;;;;;;;7.97;83.50;99907.41;5007963;28;102875;-70
2023/02/03 04:42:06;;;;;;;1.37;0.70;;;;;;;7.61;85.10;99910.75;5008437;27;102659;-70
2023/02/03 04:44:33;;;;;;;0.70;0.50;;;;;;;7.69;85.48;99921.81;5009998;28;102718;-70
2023/02/03 04:47:01;;;;;;;0.77;0.50;;;;;;;7.34;86.68;99921.47;5011644;27;103986;-70
2023/02/03 04:49:29;;;;;;;0.70;0.70;;;;;;;7.59;86.46;99914.31;5009482;28;103090;-72
2023/02/03 04:51:59;;;;;;;0.70;0.43;;;;;;;7.62;86.43;99920.34;5013209;28;102686;-73
2023/02/03 04:54:27;;;;;;;0.53;0.50;;;;;;;7.69;86.00;99924.44;5011688;28;102846;-74
2023/02/03 04:56:56;;;;;;;1.27;0.60;;;;;;;7.79;85.50;99913.47;5006450;28;103539;-74
2023/02/03 04:59:24;;;;;;;1.33;0.60;;;;;;;7.81;85.46;99894.97;5011882;28;103241;-74
2023/02/03 05:01:52;;;;;;;1.67;0.60;;;;;;;7.79;85.24;99894.19;5016485;28;102723;-74
2023/02/03 05:04:20;;;;;;;1.47;0.80;;;;;;;7.83;84.98;99882.63;5012322;28;103864;-73
2023/02/03 05:06:48;;;;;;;1.87;0.70;;;;;;;7.81;84.89;99884.44;5016382;28;104122;-72
2023/02/03 05:09:16;;;;;;;1.17;0.60;;;;;;;7.90;84.68;99895.47;5014160;28;103326;-72
2023/02/03 05:11:43;;;;;;;2.27;0.80;;;;;;;7.59;85.33;99895.88;5010886;28;102664;-72
2023/02/03 05:14:15;;;;;;;1.37;0.60;;;;;;;7.54;86.70;99913.63;5008728;27;102843;-73
2023/02/03 05:16:45;;;;;;;1.17;0.63;;;;;;;7.76;86.20;99912.75;5012900;28;104440;-68
2023/02/03 05:19:13;;;;;;;1.63;0.50;;;;;;;7.61;86.48;99916.84;5012347;28;103168;-69
2023/02/03 05:21:41;;;;;;;1.83;0.57;;;;;;;7.81;86.07;99924.78;5009416;28;103014;-69
2023/02/03 05:24:09;;;;;;;0.90;0.63;;;;;;;7.80;85.78;99912.56;5012968;28;102730;-69
2023/02/03 05:26:37;;;;;;;0.93;0.60;;;;;;;7.80;85.80;99912.56;5015815;28;103392;-69
2023/02/03 05:29:05;;;;;;;0.70;0.53;;;;;;;7.35;88.16;99919.72;5011466;28;103332;-68
2023/02/03 05:31:34;;;;;;;0.83;0.60;;;;;;;7.35;88.71;99907.41;5014506;27;103146;-70
2023/02/03 05:34:02;;;;;;;1.33;0.60;;;;;;;7.38;88.32;99909.91;5011570;28;103971;-69
2023/02/03 05:36:30;;;;;;;0.97;0.73;;;;;;;7.51;88.13;99908.50;5012472;28;104046;-69
2023/02/03 05:38:58;;;;;;;1.70;0.60;;;;;;;7.46;88.20;99910.47;5009216;28;102600;-69
2023/02/03 05:44:11;;;;;;;0.50;0.50;;;;;;;7.50;89.05;99916.44;5026819;27;102773;-70
2023/02/03 05:46:40;;;;;;;1.40;0.77;;;;;;;7.56;88.15;99917.06;5009092;28;103301;-69
2023/02/03 05:49:08;;;;;;;1.50;0.60;;;;;;;7.51;88.46;99919.03;5008483;28;103017;-69
2023/02/03 05:51:36;;;;;;;0.90;0.60;;;;;;;7.56;88.35;99921.44;5011580;28;102714;-69
2023/02/03 05:54:04;;;;;;;2.10;0.90;;;;;;;7.47;88.58;99913.94;5009462;28;102812;-70
2023/02/03 05:56:32;;;;;;;1.90;1.33;;;;;;;7.46;88.92;99907.84;5007753;28;102986;-70
2023/02/03 05:59:00;;;;;;;1.70;0.70;;;;;;;7.55;88.53;99904.81;5011216;28;103154;-69
2023/02/03 06:01:30;;;;;;;1.97;0.70;;;;;;;7.42;88.93;99895.72;5013467;27;102616;-69
2023/02/03 06:03:59;;;;;;;2.70;0.90;;;;;;;7.17;89.65;99902.88;5014792;28;102693;-69
2023/02/03 06:06:31;;;;;;;1.10;0.90;;;;;;;7.41;88.88;99896.63;5013243;27;103251;-69
2023/02/03 06:09:00;;;;;;;1.23;0.80;;;;;;;7.40;88.52;99894.94;5029005;27;104141;-69
2023/02/03 06:11:28;;;;;;;1.00;0.73;;;;;;;7.39;88.33;99885.31;5011692;28;102666;-69
2023/02/03 06:13:57;;;;;;;0.70;0.70;;;;;;;7.53;87.96;99879.50;5012767;28;104751;-71
2023/02/03 06:16:25;;;;;;;3.43;0.80;;;;;;;7.36;87.78;99872.31;5013452;28;103221;-69
2023/02/03 06:18:57;;;;;;;2.07;0.70;;;;;;;7.30;88.07;99877.81;5007396;28;103444;-71
2023/02/03 06:21:26;;;;;;;1.30;0.83;;;;;;;7.43;88.09;99873.78;5015891;28;102847;-70
2023/02/03 06:23:55;;;;;;;0.87;0.80;;;;;;;7.44;87.75;99899.13;5016268;28;103158;-71
2023/02/03 06:26:23;;;;;;;1.90;0.87;;;;;;;7.59;87.19;99901.16;5010859;28;103284;-71
2023/02/03 06:28:51;;;;;;;1.77;1.10;;;;;;;7.51;87.62;99894.50;5016912;27;102979;-71
2023/02/03 06:31:19;;;;;;;1.20;1.00;;;;;;;7.70;87.28;99897.22;5015233;28;102839;-71
2023/02/03 06:33:49;;;;;;;0.80;0.80;;;;;;;7.67;87.38;99886.81;5016960;28;103218;-72
2023/02/03 06:36:17;;;;;;;2.07;0.97;;;;;;;7.72;87.41;99887.50;5012599;28;103700;-72
2023/02/03 06:38:46;;;;;;;1.67;1.00;;;;;;;7.77;87.28;99898.69;5012861;28;103305;-72
2023/02/03 06:41:14;;;;;;;0.93;0.80;;;;;;;7.67;87.97;99902.59;5002368;28;102691;-71
2023/02/03 06:43:42;;;;;;;1.17;0.90;;;;;;;7.71;88.09;99896.28;4994950;28;103896;-70
2023/02/03 06:46:10;;;;;;;1.93;1.10;;;;;;;7.73;88.29;99891.81;5011123;28;104177;-68
2023/02/03 06:48:37;;;;;;;5.03;3.17;;;;;;;7.58;89.05;99882.78;5014294;28;103191;-68
2023/02/03 06:51:08;;;;;;;7.87;4.57;;;;;;;7.72;88.36;99863.81;5013459;27;102614;-67
2023/02/03 06:53:35;;;;;;;6.90;4.80;;;;;;;7.79;88.21;99866.13;5005728;28;102715;-67
2023/02/03 06:56:07;;;;;;;5.37;3.20;;;;;;;7.58;88.54;99862.59;5019758;28;103911;-67
2023/02/03 06:58:35;;;;;;;2.50;2.10;;;;;;;7.59;88.95;99863.47;5010936;28;104380;-68
2023/02/03 07:01:02;;;;;;;1.83;1.20;;;;;;;7.55;89.03;99862.72;5017791;28;102931;-67
2023/02/03 07:03:30;;;;;;;1.40;1.17;;;;;;;7.50;89.85;99864.72;5018212;28;103473;-68
2023/02/03 07:05:58;;;;;;;4.17;1.57;;;;;;;7.45;89.48;99863.19;5014409;28;104648;-68
2023/02/03 07:08:26;;;;;;;2.30;1.20;;;;;;;7.34;90.07;99865.41;5012211;28;103254;-67
2023/02/03 07:10:54;;;;;;;5.00;1.07;;;;;;;7.45;89.66;99852.66;5027880;27;102580;-68
2023/02/03 07:13:23;;;;;;;3.50;1.43;;;;;;;7.33;89.79;99864.53;5018274;28;103029;-68
2023/02/03 07:15:51;;;;;;;2.20;0.90;;;;;;;7.48;89.12;99870.94;5010564;28;104058;-67
2023/02/03 07:18:23;;;;;;;1.40;1.10;;;;;;;7.54;89.00;99862.81;5012005;28;105084;-68
2023/02/03 07:21:11;;;;;;;3.33;1.30;;;;;;;7.58;88.33;99859.97;5012932;28;106186;-68
2023/02/03 07:23:39;;;;;;;2.03;1.20;;;;;;;7.61;88.47;99851.09;5012359;28;103971;-68
2023/02/03 07:26:08;;;;;;;2.17;0.93;;;;;;;7.41;89.37;99865.06;5014731;28;103241;-68
2023/02/03 07:28:37;;;;;;;2.30;1.20;;;;;;;7.45;89.24;99864.03;5010528;28;103294;-68
2023/02/03 07:31:06;;;;;;;1.87;1.00;;;;;;;7.36;89.89;99866.19;5014771;28;102869;-68
2023/02/03 07:33:34;;;;;;;3.60;1.30;;;;;;;7.40;89.63;99868.66;5017192;28;102646;-68
2023/02/03 07:36:03;;;;;;;1.90;1.20;;;;;;;7.11;90.05;99870.72;5011368;28;104956;-68
2023/02/03 07:38:31;;;;;;;1.43;1.10;;;;;;;7.50;89.44;99880.47;5013226;28;103271;-68
2023/02/03 07:40:59;;;;;;;2.77;1.13;;;;;;;7.34;89.29;99879.41;5016546;27;103116;-68
2023/02/03 07:43:27;;;;;;;2.13;1.30;;;;;;;7.52;89.12;99878.63;5008934;28;102880;-68
2023/02/03 07:45:56;;;;;;;1.20;1.10;;;;;;;7.64;88.10;99894.81;5009719;28;104195;-68
2023/02/03 07:48:24;;;;;;;1.80;0.80;;;;;;;7.41;88.68;99911.56;5009686;28;103181;-68
2023/02/03 07:50:51;;;;;;;3.30;3.00;;;;;;;7.56;88.08;99906.53;5014811;28;102599;-68
2023/02/03 07:53:19;;;;;;;2.50;1.00;;;;;;;7.15;88.46;99909.13;5010640;28;102907;-68
2023/02/03 07:55:47;;;;;;;1.47;1.30;;;;;;;7.48;88.57;99916.50;5012563;28;103792;-68
2023/02/03 07:58:15;;;;;;;1.77;0.83;;;;;;;7.26;89.23;99915.66;5012261;28;103962;-68
2023/02/03 08:00:43;;;;;;;2.27;1.10;;;;;;;7.47;88.67;99916.56;5013109;28;102767;-68
2023/02/03 08:03:12;;;;;;;1.60;1.00;;;;;;;7.71;87.75;99935.75;5007156;28;103822;-68
2023/02/03 08:05:40;;;;;;;3.80;1.80;;;;;;;7.37;88.99;99937.13;5014721;28;104131;-68
2023/02/03 08:08:11;;;;;;;1.93;1.30;;;;;;;7.29;90.08;99939.22;5010279;28;103242;-68
2023/02/03 08:10:38;;;;;;;5.07;1.87;;;;;;;7.30;90.21;99940.91;5011948;28;102706;-68
2023/02/03 08:13:06;;;;;;;2.20;2.00;;;;;;;7.06;90.91;99936.63;5010766;28;103921;-68
2023/02/03 08:15:34;;;;;;;1.53;1.20;;;;;;;7.09;90.90;99935.63;5008203;28;103437;-67
2023/02/03 08:18:02;;;;;;;2.90;1.23;;;;;;;7.21;90.45;99941.28;5010671;27;103231;-71
2023/02/03 08:20:31;;;;;;;1.90;1.10;;;;;;;7.49;90.35;99949.75;5016160;28;102924;-68
2023/02/03 08:23:02;;;;;;;1.53;1.30;;;;;;;7.25;90.29;99948.13;5009079;28;103766;-68
2023/02/03 08:25:29;;;;;;;2.27;1.23;;;;;;;7.58;89.26;99943.28;5013317;28;104360;-68
2023/02/03 08:27:57;;;;;;;3.00;1.07;;;;;;;7.58;88.59;99946.78;5012199;28;103175;-68
2023/02/03 08:30:26;;;;;;;1.00;0.90;;;;;;;7.72;88.53;99940.94;5013343;27;102664;-68
2023/02/03 08:32:54;;;;;;;2.37;1.13;;;;;;;7.75;88.98;99942.63;5009638;28;104052;-68
2023/02/03 08:35:24;;;;;;;3.30;1.40;;;;;;;7.63;89.70;99935.22;5012987;28;103227;-68
2023/02/03 08:37:54;;;;;;;3.20;1.33;;;;;;;7.77;89.52;99935.50;5012656;28;103203;-68
2023/02/03 08:40:22;;;;;;;2.93;1.30;;;;;;;7.64;90.36;99932.50;5010552;28;102795;-68
2023/02/03 08:42:49;;;;;;;1.80;1.20;;;;;;;7.49;90.87;99951.56;5011932;28;103689;-68
2023/02/03 08:45:17;;;;;;;2.57;1.20;;;;;;;7.76;90.62;99954.84;5009366;28;104307;-68
2023/02/03 08:47:45;;;;;;;5.10;1.20;;;;;;;7.98;89.45;99955.66;5012088;27;103257;-69
2023/02/03 08:50:13;;;;;;;2.80;1.20;;;;;;;7.92;88.79;99955.91;5017710;28;102763;-68
2023/02/03 08:52:41;;;;;;;1.50;1.40;;;;;;;7.92;89.63;99956.75;5015461;28;104227;-68
2023/02/03 08:55:10;;;;;;;2.07;1.50;;;;;;;7.89;89.23;99942.88;5013482;28;104256;-68
2023/02/03 08:57:38;;;;;;;1.67;1.37;;;;;;;7.94;89.58;99949.66;5015987;28;104326;-68
2023/02/03 09:00:10;;;;;;;2.23;1.17;;;;;;;7.84;90.15;99948.34;5017102;28;102707;-68
2023/02/03 09:02:38;;;;;;;1.67;0.90;;;;;;;7.87;89.20;99950.84;5013550;28;104075;-68
2023/02/03 09:05:06;;;;;;;3.77;1.23;;;;;;;7.92;89.68;99940.09;5009481;28;104304;-68
2023/02/03 09:07:34;;;;;;;2.67;1.50;;;;;;;7.99;89.35;99928.41;5013936;28;103196;-68
2023/02/03 09:10:02;;;;;;;2.33;1.10;;;;;;;7.99;89.14;99920.53;5012296;28;102727;-68
2023/02/03 09:12:31;;;;;;;4.33;1.20;;;;;;;8.07;89.45;99926.31;5013605;28;103574;-68
2023/02/03 09:14:58;;;;;;;1.60;1.27;;;;;;;8.23;88.36;99935.25;5009632;28;104358;-68
2023/02/03 09:17:26;;;;;;;1.93;1.20;;;;;;;7.90;89.47;99921.78;5012615;28;103202;-68
2023/02/03 09:19:54;;;;;;;4.40;1.83;;;;;;;7.95;89.91;99918.94;5011615;28;102615;-68
2023/02/03 09:22:22;;;;;;;1.37;1.20;;;;;;;8.24;88.56;99913.28;5012913;28;102644;-68
2023/02/03 09:24:52;;;;;;;2.80;1.00;;;;;;;8.44;87.31;99912.44;5006465;28;104363;-68
2023/02/03 09:27:20;;;;;;;2.20;1.10;;;;;;;8.63;87.25;99924.72;5013886;28;104195;-68
2023/02/03 09:29:49;;;;;;;1.27;0.90;;;;;;;8.77;87.10;99920.59;5009318;28;102692;-68
2023/02/03 09:32:17;;;;;;;3.33;1.33;;;;;;;8.73;86.88;99920.72;5010654;28;104102;-68
2023/02/03 09:34:45;;;;;;;2.33;1.27;;;;;;;8.72;85.78;99924.31;5012308;28;103338;-68
2023/02/03 09:37:14;;;;;;;2.03;1.00;;;;;;;9.22;85.07;99923.72;5017293;27;103640;-68
2023/02/03 09:39:42;;;;;;;1.10;1.00;;;;;;;9.40;83.92;99933.41;5013934;28;102556;-68
2023/02/03 09:42:36;;;;;;;4.33;1.07;;;;;;;9.06;84.69;99930.66;5012442;28;102633;-68
2023/02/03 09:45:17;;;;;;;1.40;1.30;;;;;;;8.96;84.46;99937.25;5015501;28;104627;-68
2023/02/03 09:47:52;;;;;;;2.67;1.27;;;;;;;9.05;84.71;99934.19;5022993;27;104053;-68
2023/02/03 09:50:26;;;;;;;0.77;0.63;;;;;;;9.00;84.17;99933.56;5008581;28;102954;-67
2023/02/03 09:52:57;;;;;;;1.83;0.90;;;;;;;9.09;83.15;99935.78;5010062;28;103939;-67
2023/02/03 09:55:29;;;;;;;1.57;0.87;;;;;;;8.98;83.73;99919.63;5015069;28;103946;-68
2023/02/03 09:58:03;;;;;;;0.83;0.77;;;;;;;9.01;81.93;99917.66;5020206;27;103198;-68
2023/02/03 10:00:36;;;;;;;1.10;0.70;;;;;;;9.17;81.84;99907.28;5015951;28;103385;-68
2023/02/03 10:03:08;;;;;;;2.13;0.60;;;;;;;9.16;81.62;99914.31;5011252;28;103168;-67
2023/02/03 10:06:01;;;;;;;2.33;0.70;;;;;;;8.92;82.05;99904.06;5015484;28;103946;-67
2023/02/03 10:08:43;;;;;;;1.53;0.60;;;;;;;9.32;81.59;99896.81;5013329;28;103205;-68
2023/02/03 10:11:22;;;;;;;1.27;0.70;;;;;;;9.21;80.98;99891.22;5015445;28;102729;-67
2023/02/03 10:14:04;;;;;;;1.53;0.60;;;;;;;9.39;80.56;99907.94;5015574;28;103077;-67
2023/02/03 10:16:45;;;;;;;1.23;0.70;;;;;;;9.43;79.59;99906.84;5014356;28;103317;-68
2023/02/03 10:19:20;;;;;;;1.43;0.70;;;;;;;9.35;79.74;99914.28;5011925;28;103316;-68
2023/02/03 10:21:51;;;;;;;1.27;0.70;;;;;;;9.34;80.17;99936.34;5013365;28;103796;-67
2023/02/03 10:24:26;;;;;;;0.93;0.60;;;;;;;9.07;79.33;99934.97;5020543;28;103475;-67
2023/02/03 10:26:54;;;;;;;1.70;0.77;;;;;;;9.18;79.65;99927.41;5012677;27;104103;-67
2023/02/03 10:29:31;;;;;;;1.27;0.50;;;;;;;9.37;79.53;99920.34;5014921;27;103200;-67
2023/02/03 10:32:01;;;;;;;0.80;0.67;;;;;;;9.34;79.30;99938.97;5015808;28;102664;-67
2023/02/03 10:34:29;;;;;;;1.03;0.60;;;;;;;9.50;79.23;99934.66;5015246;28;102743;-68
2023/02/03 10:37:00;;;;;;;1.43;0.73;;;;;;;9.55;78.55;99919.44;5010258;28;103821;-68
2023/02/03 10:39:33;;;;;;;0.63;0.63;;;;;;;9.16;78.22;99919.59;5011085;28;103402;-67
2023/02/03 10:42:02;;;;;;;1.03;0.67;;;;;;;9.28;78.65;99905.84;5013141;28;102733;-67
2023/02/03 10:44:36;;;;;;;1.20;0.60;;;;;;;9.06;78.75;99886.69;5011753;28;102911;-68
2023/02/03 10:47:20;;;;;;;0.93;0.60;;;;;;;9.23;79.03;99884.06;5018457;28;103216;-67
2023/02/03 10:49:51;;;;;;;1.50;0.50;;;;;;;9.64;77.98;99868.88;5008208;28;104421;-67
2023/02/03 10:52:29;;;;;;;1.13;0.70;;;;;;;9.47;77.33;99889.09;5014476;28;103791;-67
2023/02/03 10:54:58;;;;;;;0.70;0.60;;;;;;;9.73;77.32;99880.75;5012060;28;103903;-67
2023/02/03 10:57:28;;;;;;;1.97;0.50;;;;;;;9.83;76.94;99880.19;5010972;28;103896;-67
2023/02/03 11:00:09;;;;;;;0.83;0.60;;;;;;;10.01;77.20;99882.84;5005978;28;103228;-69
2023/02/03 11:02:38;;;;;;;1.13;0.77;;;;;;;9.84;76.79;99876.66;5008748;28;102712;-67
2023/02/03 11:05:18;;;;;;;0.93;0.60;;;;;;;10.12;75.64;99889.28;5031262;27;102779;-68
2023/02/03 11:07:46;;;;;;;2.67;0.53;;;;;;;9.90;76.53;99889.53;5014518;28;103741;-67
2023/02/03 11:10:27;;;;;;;0.60;0.60;;;;;;;9.85;76.43;99894.16;5013234;28;103252;-67
2023/02/03 11:13:11;;;;;;;1.20;0.70;;;;;;;9.75;76.70;99889.44;5011751;28;102814;-67
2023/02/03 11:15:44;;;;;;;0.50;0.50;;;;;;;9.84;76.85;99886.34;5009421;27;103220;-68
2023/02/03 11:18:43;;;;;;;0.93;0.60;;;;;;;9.34;76.95;99867.75;5029158;27;104153;-68
2023/02/03 11:21:18;;;;;;;0.50;0.50;;;;;;;9.71;76.38;99867.63;4973867;28;103207;-68
2023/02/03 11:23:50;;;;;;;0.93;0.67;;;;;;;9.52;75.91;99853.66;5015272;28;102672;-68
2023/02/03 11:26:20;;;;;;;0.50;0.50;;;;;;;9.59;76.32;99864.75;5014406;28;104225;-69
2023/02/03 11:28:51;;;;;;;0.70;0.70;;;;;;;9.59;76.39;99860.34;5012927;28;103651;-68
2023/02/03 11:31:23;;;;;;;0.73;0.73;;;;;;;9.77;75.04;99864.66;5012787;28;103233;-68
2023/02/03 11:33:57;;;;;;;0.70;0.60;;;;;;;9.57;74.70;99856.91;5011785;28;102635;-67
2023/02/03 11:36:30;;;;;;;0.70;0.70;;;;;;;9.51;74.92;99849.31;5010048;28;102893;-68
2023/02/03 11:39:25;;;;;;;0.73;0.47;;;;;;;9.62;75.61;99854.91;5013668;28;103931;-68
2023/02/03 11:41:53;;;;;;;0.60;0.60;;;;;;;9.57;75.54;99854.25;5012917;28;102948;-68
2023/02/03 11:44:24;;;;;;;0.50;0.50;;;;;;;9.61;74.40;99847.91;5012878;28;103353;-68
2023/02/03 11:46:57;;;;;;;0.70;0.50;;;;;;;9.73;74.57;99838.53;5010802;28;103907;-68
2023/02/03 11:49:52;;;;;;;0.90;0.60;;;;;;;9.76;74.58;99841.00;5014841;28;103230;-68
2023/02/03 11:52:40;;;;;;;2.13;0.60;;;;;;;9.58;75.13;99832.22;5010403;28;103431;-67
2023/02/03 11:55:19;;;;;;;0.93;0.53;;;;;;;9.82;75.12;99815.13;5011505;28;103415;-68